Circle Line Brooklyn — WDE8160 — position and weather

sailwx.info

Track history (hours):
 
Tides and Currents Weather Stations Pressure Air Temp Water Temp Dewpoint Dewpoint Depression Visibility Wind Speed Wind Dir Waves Ship Positions

Circle Line Brooklyn

Owner: Circle Line Sight Seeing Yachts Inc., New York, NY. More information available from US FCC via Universal Licensing System and Coast Guard Vessel Documentation Center.

Last reported at 2017-Sep-22 01:00 UTC. Time now 2017-Sep-22 06:32 UTC.
Position N 40°46' W 074°00'.

MMSI: 367402250.

Date/timePositionNaut miles runAvg speedWind from/ knotsBaromVisibWave heightAir tempDewpointWater temp
2017-Sep-22 01:00N 40°46' W 074°00'5 9.2
2017-Sep-22 00:30N 40°41' W 074°02'4 7.1
2017-Sep-22 00:01N 40°43' W 073°58'2 3.5
2017-Sep-21 23:30N 40°42' W 074°00'4 7.2
2017-Sep-21 23:00N 40°46' W 074°00'0 0.0
2017-Sep-21 22:29N 40°46' W 074°00'0 0.0
2017-Sep-21 21:59N 40°46' W 074°00'0 0.0
2017-Sep-21 21:29N 40°46' W 074°00'0 0.0
2017-Sep-21 20:59N 40°46' W 074°00'0 0.0
2017-Sep-21 20:29N 40°46' W 074°00'0 0.0
2017-Sep-21 19:59N 40°46' W 074°00'611.5
2017-Sep-21 19:30N 40°51' W 073°57'5 6.2
2017-Sep-21 18:40N 40°46' W 073°57'210.7
2017-Sep-21 18:30N 40°44' W 073°58'5 9.4
2017-Sep-21 18:01N 40°41' W 074°03'510.0
2017-Sep-21 17:30N 40°46' W 074°00'0 0.0
2017-Sep-21 16:58N 40°46' W 074°00'0 0.0
2017-Sep-21 16:30N 40°46' W 074°00'1 2.4
2017-Sep-21 16:00N 40°45' W 074°01'2 4.7
2017-Sep-21 15:30N 40°44' W 073°58'0 0.4
2017-Sep-21 15:00N 40°44' W 073°58'4 8.3
2017-Sep-21 14:30N 40°42' W 074°02'4 8.4
2017-Sep-21 13:59N 40°46' W 074°00'0 0.0
2017-Sep-21 13:29N 40°46' W 074°00'0 0.0
2017-Sep-19 20:04N 40°46' W 074°00'0 0.1
2017-Sep-19 20:00N 40°46' W 074°00'3 6.4
2017-Sep-19 19:28N 40°49' W 073°58'510.8
2017-Sep-19 19:00N 40°44' W 074°01'2 4.7
2017-Sep-19 18:30N 40°44' W 073°58'4 8.6
2017-Sep-19 18:00N 40°41' W 074°02'5 9.5
2017-Sep-19 17:30N 40°46' W 074°00'0 0.0
2017-Sep-19 17:00N 40°46' W 074°00'0 0.0
2017-Sep-19 16:30N 40°46' W 074°00'510.4
2017-Sep-19 16:01N 40°50' W 073°57'612.8
2017-Sep-19 15:30N 40°45' W 074°01'2 4.8
2017-Sep-19 15:00N 40°44' W 073°58'4 8.3
2017-Sep-19 14:30N 40°41' W 074°02'5 9.3
2017-Sep-19 14:00N 40°46' W 074°00'0 0.0
2017-Sep-19 01:10N 40°46' W 074°00'0 0.0
2017-Sep-19 01:00N 40°46' W 074°00'5 9.2
2017-Sep-19 00:31N 40°42' W 074°02'4 7.4
2017-Sep-19 00:00N 40°44' W 073°58'3 5.3
2017-Sep-18 23:30N 40°42' W 074°01'4 7.9
2017-Sep-18 23:00N 40°46' W 074°00'0 0.0
2017-Sep-18 22:29N 40°46' W 074°00'0 0.0
2017-Sep-18 21:56N 40°46' W 074°00'0 0.0
2017-Sep-18 21:29N 40°46' W 074°00'0 0.0
2017-Sep-18 20:56N 40°46' W 074°00'0 0.0
2017-Sep-18 20:29N 40°46' W 074°00'0 0.0
2017-Sep-18 19:59N 40°46' W 074°00'713.9
2017-Sep-18 19:30N 40°52' W 073°56'6 6.5
2017-Sep-18 18:32N 40°45' W 073°57'110.1
2017-Sep-18 18:29N 40°45' W 073°57'511.1
2017-Sep-18 18:01N 40°41' W 074°02'5 9.3
2017-Sep-18 17:30N 40°46' W 074°00'0 0.0
2017-Sep-18 17:00N 40°46' W 074°00'0 0.0
2017-Sep-18 16:30N 40°46' W 074°00'612.0
2017-Sep-18 16:00N 40°51' W 073°57'6 6.9
2017-Sep-18 15:08N 40°45' W 073°57'110.3
2017-Sep-18 15:00N 40°44' W 073°58'4 8.9
2017-Sep-18 14:30N 40°41' W 074°03'5 9.5
2017-Sep-18 14:00N 40°46' W 074°00'0 0.0
2017-Sep-18 13:30N 40°46' W 074°00'0 0.0
2017-Sep-18 13:00N 40°46' W 074°00'0 0.0
2017-Sep-18 01:09N 40°46' W 074°00'0 0.0
2017-Sep-18 01:00N 40°46' W 074°00'510.0
2017-Sep-18 00:30N 40°41' W 074°03'5 9.2
2017-Sep-18 00:00N 40°44' W 073°58'3 6.2
2017-Sep-17 23:30N 40°43' W 074°01'3 6.6
2017-Sep-17 23:00N 40°46' W 074°00'0 0.0
2017-Sep-17 22:28N 40°46' W 074°00'0 0.0
2017-Sep-17 21:55N 40°46' W 074°00'0 0.0
2017-Sep-17 21:28N 40°46' W 074°00'0 0.0
2017-Sep-17 20:58N 40°46' W 074°00'0 0.0
2017-Sep-17 20:28N 40°46' W 074°00'3 6.0
2017-Sep-17 20:00N 40°48' W 073°59'3 2.1
2017-Sep-17 18:34N 40°45' W 073°57'113.7
2017-Sep-17 18:30N 40°45' W 073°58'510.5
2017-Sep-17 18:00N 40°41' W 074°03'5 9.4
2017-Sep-17 17:28N 40°46' W 074°00'0 0.0
2017-Sep-17 16:58N 40°46' W 074°00'0 0.0
2017-Sep-17 16:28N 40°46' W 074°00'510.9
2017-Sep-17 16:00N 40°50' W 073°57'5 5.8
2017-Sep-17 15:08N 40°45' W 073°57'111.0
2017-Sep-17 15:01N 40°44' W 073°58'5 9.2
2017-Sep-17 14:30N 40°41' W 074°03'5 9.9
2017-Sep-17 14:00N 40°46' W 074°00'0 0.0
2017-Sep-17 13:30N 40°46' W 074°00'0 0.0
2017-Sep-17 01:02N 40°46' W 074°00'0 0.1
2017-Sep-17 01:00N 40°46' W 074°00'510.1
2017-Sep-17 00:30N 40°41' W 074°02'4 8.6
2017-Sep-17 00:01N 40°44' W 073°58'3 6.3
2017-Sep-16 23:30N 40°42' W 074°01'4 7.8
2017-Sep-16 23:00N 40°46' W 074°00'0 0.0
2017-Sep-16 22:28N 40°46' W 074°00'0 0.0
2017-Sep-16 21:55N 40°46' W 074°00'1 2.0
2017-Sep-16 21:30N 40°45' W 074°01'2 4.1
2017-Sep-16 21:00N 40°43' W 074°01'3 5.6
2017-Sep-16 20:30N 40°46' W 074°00'0 0.0
2017-Sep-16 19:59N 40°46' W 074°00'0 0.0
2017-Sep-16 19:30N 40°46' W 074°00'5 9.6
2017-Sep-16 19:00N 40°41' W 074°02'5 9.5
2017-Sep-16 18:30N 40°46' W 074°00'0 0.0
2017-Sep-16 18:00N 40°46' W 074°00'0 0.0
2017-Sep-16 17:30N 40°46' W 074°00'0 0.0
2017-Sep-16 17:00N 40°46' W 074°00'4 8.1
2017-Sep-16 16:30N 40°42' W 074°01'1 1.6
2017-Sep-16 16:00N 40°41' W 074°01'1 2.5
2017-Sep-16 15:31N 40°41' W 074°02'5 9.8
2017-Sep-16 15:00N 40°46' W 074°00'0 0.0
2017-Sep-16 14:30N 40°46' W 074°00'0 0.0
2017-Sep-16 14:00N 40°46' W 074°00'0 0.0
2017-Sep-16 00:58N 40°46' W 074°00'4 7.8
2017-Sep-16 00:31N 40°42' W 074°02'2 4.7
2017-Sep-16 00:00N 40°43' W 073°59'1 1.7
2017-Sep-15 23:30N 40°42' W 073°60'3 6.8
2017-Sep-15 23:00N 40°46' W 074°00'0 0.0
2017-Sep-15 22:30N 40°46' W 074°00'0 0.0
2017-Sep-15 22:00N 40°46' W 074°00'0 0.0
2017-Sep-15 21:30N 40°46' W 074°00'0 0.0
2017-Sep-15 20:57N 40°46' W 074°00'0 0.0
2017-Sep-15 20:30N 40°46' W 074°00'0 0.0
2017-Sep-15 20:00N 40°46' W 074°00'510.0
2017-Sep-15 19:30N 40°50' W 073°57'5 4.8
2017-Sep-15 18:34N 40°46' W 073°57'113.6
2017-Sep-15 18:30N 40°45' W 073°58'611.0
2017-Sep-15 18:00N 40°41' W 074°03'5 9.7
2017-Sep-15 17:30N 40°46' W 074°00'0 0.0
2017-Sep-15 17:00N 40°46' W 074°00'0 0.0
2017-Sep-15 16:30N 40°46' W 074°00'612.8
2017-Sep-15 16:00N 40°52' W 073°57'6 7.1
2017-Sep-15 15:09N 40°46' W 073°57'211.4
2017-Sep-15 15:00N 40°44' W 073°58'4 8.8
2017-Sep-15 14:30N 40°41' W 074°02'5 8.9
2017-Sep-15 13:58N 40°46' W 074°00'0 0.0
2017-Sep-15 13:28N 40°46' W 074°00'0 0.0
2017-Sep-15 12:58N 40°46' W 074°00'0 0.0
2017-Sep-15 12:28N 40°46' W 074°00'0 0.0
2017-Sep-15 00:58N 40°46' W 074°00'3 7.1
2017-Sep-15 00:30N 40°43' W 074°02'3 5.2
2017-Sep-15 00:00N 40°43' W 073°58'2 3.1
2017-Sep-14 23:30N 40°42' W 074°00'4 6.9
2017-Sep-14 22:59N 40°46' W 074°00'0 0.0
2017-Sep-14 22:29N 40°46' W 074°00'0 0.0
2017-Sep-14 21:59N 40°46' W 074°00'0 0.0
2017-Sep-14 21:29N 40°46' W 074°00'0 0.0
2017-Sep-14 20:59N 40°46' W 074°00'0 0.0
2017-Sep-14 20:29N 40°46' W 074°00'0 0.0
2017-Sep-14 19:58N 40°46' W 074°00'4 9.3
2017-Sep-14 19:30N 40°50' W 073°58'4 4.1
2017-Sep-14 18:30N 40°46' W 073°57'611.9
2017-Sep-14 18:00N 40°41' W 074°02'5 8.1
2017-Sep-14 17:25N 40°46' W 074°00'0 0.0
2017-Sep-14 16:58N 40°46' W 074°00'0 0.0
2017-Sep-14 16:30N 40°46' W 074°00'510.0
2017-Sep-14 16:01N 40°50' W 073°58'4 4.9
2017-Sep-14 15:07N 40°46' W 073°57'112.3
2017-Sep-14 15:01N 40°45' W 073°58'510.1
2017-Sep-14 14:30N 40°41' W 074°03'5 9.8
2017-Sep-14 14:00N 40°46' W 074°00'0 0.0
2017-Sep-14 00:45N 40°46' W 074°00'2 6.9
2017-Sep-14 00:30N 40°44' W 074°01'3 5.2
2017-Sep-14 00:00N 40°42' W 074°02'5 9.1
2017-Sep-13 23:31N 40°45' W 073°58'3 6.3
2017-Sep-13 23:00N 40°43' W 074°01'3 5.3
2017-Sep-13 22:29N 40°46' W 074°00'0 0.0
2017-Sep-13 21:59N 40°46' W 074°00'0 0.0
2017-Sep-13 21:29N 40°46' W 074°00'0 0.0
2017-Sep-13 20:59N 40°46' W 074°00'0 0.0
2017-Sep-13 20:29N 40°46' W 074°00'0 0.0
2017-Sep-13 19:59N 40°46' W 074°00'0 0.0
2017-Sep-13 19:26N 40°46' W 074°00'0 0.0
2017-Sep-13 18:53N 40°46' W 074°00'0 0.0
2017-Sep-13 18:29N 40°46' W 074°00'0 0.0
2017-Sep-13 17:59N 40°46' W 074°00'0 0.0
2017-Sep-13 17:29N 40°46' W 074°00'0 0.0
2017-Sep-13 16:59N 40°46' W 074°00'0 0.0
2017-Sep-13 16:29N 40°46' W 074°00'0 0.0
2017-Sep-13 15:59N 40°46' W 074°00'0 0.0
2017-Sep-13 15:30N 40°46' W 074°00'0 0.1
2017-Sep-13 15:00N 40°46' W 074°00'0 0.0
2017-Sep-13 14:27N 40°46' W 074°00'0 0.0
2017-Sep-13 00:57N 40°46' W 074°00'4 8.4
2017-Sep-13 00:30N 40°42' W 074°02'3 5.7
2017-Sep-13 00:00N 40°43' W 073°58'2 3.9
2017-Sep-12 23:31N 40°42' W 074°00'4 7.4
2017-Sep-12 22:59N 40°46' W 074°00'0 0.0
2017-Sep-12 22:29N 40°46' W 074°00'0 0.0
2017-Sep-12 21:59N 40°46' W 074°00'0 0.0
2017-Sep-12 21:29N 40°46' W 074°00'0 0.0
2017-Sep-12 20:56N 40°46' W 074°00'0 0.0
2017-Sep-12 20:30N 40°46' W 074°00'0 0.0
2017-Sep-12 20:00N 40°46' W 074°00'2 4.4
2017-Sep-12 19:30N 40°44' W 074°01'3 5.7
2017-Sep-12 19:01N 40°45' W 073°58'0 0.9
2017-Sep-12 18:30N 40°45' W 073°58'4 9.0
2017-Sep-12 18:01N 40°42' W 074°02'4 8.8
2017-Sep-12 17:30N 40°46' W 074°00'0 0.0
2017-Sep-12 16:59N 40°46' W 074°00'0 0.1
2017-Sep-12 16:30N 40°46' W 074°00'612.8
2017-Sep-12 16:00N 40°51' W 073°57'2 3.4
2017-Sep-12 15:23N 40°49' W 073°56'411.1
2017-Sep-12 15:00N 40°45' W 073°58'611.1
2017-Sep-12 14:30N 40°41' W 074°03'5 9.5
2017-Sep-12 14:00N 40°46' W 074°00'0 0.0
2017-Sep-12 13:27N 40°46' W 074°00'0 0.0
2017-Sep-12 01:33N 40°46' W 074°00'0 0.1
2017-Sep-12 01:30N 40°46' W 074°00'0 0.0
2017-Sep-12 01:00N 40°46' W 074°00'  
Track history (hours):
 
Tides and Currents Weather Stations Pressure Air Temp Water Temp Dewpoint Dewpoint Depression Visibility Wind Speed Wind Dir Waves Ship Positions

Circle Line Brooklyn

Owner: Circle Line Sight Seeing Yachts Inc., New York, NY. More information available from US FCC via Universal Licensing System and Coast Guard Vessel Documentation Center.

Last reported at 2017-Sep-22 01:00 UTC. Time now 2017-Sep-22 06:32 UTC.
Position N 40°46' W 074°00'.

MMSI: 367402250.

Date/timePositionNaut miles runAvg speedWind from/ knotsBaromVisibWave heightAir tempDewpointWater temp
2017-Sep-22 01:00N 40°46' W 074°00'5 9.2
2017-Sep-22 00:30N 40°41' W 074°02'4 7.1
2017-Sep-22 00:01N 40°43' W 073°58'2 3.5
2017-Sep-21 23:30N 40°42' W 074°00'4 7.2
2017-Sep-21 23:00N 40°46' W 074°00'0 0.0
2017-Sep-21 22:29N 40°46' W 074°00'0 0.0
2017-Sep-21 21:59N 40°46' W 074°00'0 0.0
2017-Sep-21 21:29N 40°46' W 074°00'0 0.0
2017-Sep-21 20:59N 40°46' W 074°00'0 0.0
2017-Sep-21 20:29N 40°46' W 074°00'0 0.0
2017-Sep-21 19:59N 40°46' W 074°00'611.5
2017-Sep-21 19:30N 40°51' W 073°57'5 6.2
2017-Sep-21 18:40N 40°46' W 073°57'210.7
2017-Sep-21 18:30N 40°44' W 073°58'5 9.4
2017-Sep-21 18:01N 40°41' W 074°03'510.0
2017-Sep-21 17:30N 40°46' W 074°00'0 0.0
2017-Sep-21 16:58N 40°46' W 074°00'0 0.0
2017-Sep-21 16:30N 40°46' W 074°00'1 2.4
2017-Sep-21 16:00N 40°45' W 074°01'2 4.7
2017-Sep-21 15:30N 40°44' W 073°58'0 0.4
2017-Sep-21 15:00N 40°44' W 073°58'4 8.3
2017-Sep-21 14:30N 40°42' W 074°02'4 8.4
2017-Sep-21 13:59N 40°46' W 074°00'0 0.0
2017-Sep-21 13:29N 40°46' W 074°00'0 0.0
2017-Sep-19 20:04N 40°46' W 074°00'0 0.1
2017-Sep-19 20:00N 40°46' W 074°00'3 6.4
2017-Sep-19 19:28N 40°49' W 073°58'510.8
2017-Sep-19 19:00N 40°44' W 074°01'2 4.7
2017-Sep-19 18:30N 40°44' W 073°58'4 8.6
2017-Sep-19 18:00N 40°41' W 074°02'5 9.5
2017-Sep-19 17:30N 40°46' W 074°00'0 0.0
2017-Sep-19 17:00N 40°46' W 074°00'0 0.0
2017-Sep-19 16:30N 40°46' W 074°00'510.4
2017-Sep-19 16:01N 40°50' W 073°57'612.8
2017-Sep-19 15:30N 40°45' W 074°01'2 4.8
2017-Sep-19 15:00N 40°44' W 073°58'4 8.3
2017-Sep-19 14:30N 40°41' W 074°02'5 9.3
2017-Sep-19 14:00N 40°46' W 074°00'0 0.0
2017-Sep-19 01:10N 40°46' W 074°00'0 0.0
2017-Sep-19 01:00N 40°46' W 074°00'5 9.2
2017-Sep-19 00:31N 40°42' W 074°02'4 7.4
2017-Sep-19 00:00N 40°44' W 073°58'3 5.3
2017-Sep-18 23:30N 40°42' W 074°01'4 7.9
2017-Sep-18 23:00N 40°46' W 074°00'0 0.0
2017-Sep-18 22:29N 40°46' W 074°00'0 0.0
2017-Sep-18 21:56N 40°46' W 074°00'0 0.0
2017-Sep-18 21:29N 40°46' W 074°00'0 0.0
2017-Sep-18 20:56N 40°46' W 074°00'0 0.0
2017-Sep-18 20:29N 40°46' W 074°00'0 0.0
2017-Sep-18 19:59N 40°46' W 074°00'713.9
2017-Sep-18 19:30N 40°52' W 073°56'6 6.5
2017-Sep-18 18:32N 40°45' W 073°57'110.1
2017-Sep-18 18:29N 40°45' W 073°57'511.1
2017-Sep-18 18:01N 40°41' W 074°02'5 9.3
2017-Sep-18 17:30N 40°46' W 074°00'0 0.0
2017-Sep-18 17:00N 40°46' W 074°00'0 0.0
2017-Sep-18 16:30N 40°46' W 074°00'612.0
2017-Sep-18 16:00N 40°51' W 073°57'6 6.9
2017-Sep-18 15:08N 40°45' W 073°57'110.3
2017-Sep-18 15:00N 40°44' W 073°58'4 8.9
2017-Sep-18 14:30N 40°41' W 074°03'5 9.5
2017-Sep-18 14:00N 40°46' W 074°00'0 0.0
2017-Sep-18 13:30N 40°46' W 074°00'0 0.0
2017-Sep-18 13:00N 40°46' W 074°00'0 0.0
2017-Sep-18 01:09N 40°46' W 074°00'0 0.0
2017-Sep-18 01:00N 40°46' W 074°00'510.0
2017-Sep-18 00:30N 40°41' W 074°03'5 9.2
2017-Sep-18 00:00N 40°44' W 073°58'3 6.2
2017-Sep-17 23:30N 40°43' W 074°01'3 6.6
2017-Sep-17 23:00N 40°46' W 074°00'0 0.0
2017-Sep-17 22:28N 40°46' W 074°00'0 0.0
2017-Sep-17 21:55N 40°46' W 074°00'0 0.0
2017-Sep-17 21:28N 40°46' W 074°00'0 0.0
2017-Sep-17 20:58N 40°46' W 074°00'0 0.0
2017-Sep-17 20:28N 40°46' W 074°00'3 6.0
2017-Sep-17 20:00N 40°48' W 073°59'3 2.1
2017-Sep-17 18:34N 40°45' W 073°57'113.7
2017-Sep-17 18:30N 40°45' W 073°58'510.5
2017-Sep-17 18:00N 40°41' W 074°03'5 9.4
2017-Sep-17 17:28N 40°46' W 074°00'0 0.0
2017-Sep-17 16:58N 40°46' W 074°00'0 0.0
2017-Sep-17 16:28N 40°46' W 074°00'510.9
2017-Sep-17 16:00N 40°50' W 073°57'5 5.8
2017-Sep-17 15:08N 40°45' W 073°57'111.0
2017-Sep-17 15:01N 40°44' W 073°58'5 9.2
2017-Sep-17 14:30N 40°41' W 074°03'5 9.9
2017-Sep-17 14:00N 40°46' W 074°00'0 0.0
2017-Sep-17 13:30N 40°46' W 074°00'0 0.0
2017-Sep-17 01:02N 40°46' W 074°00'0 0.1
2017-Sep-17 01:00N 40°46' W 074°00'510.1
2017-Sep-17 00:30N 40°41' W 074°02'4 8.6
2017-Sep-17 00:01N 40°44' W 073°58'3 6.3
2017-Sep-16 23:30N 40°42' W 074°01'4 7.8
2017-Sep-16 23:00N 40°46' W 074°00'0 0.0
2017-Sep-16 22:28N 40°46' W 074°00'0 0.0
2017-Sep-16 21:55N 40°46' W 074°00'1 2.0
2017-Sep-16 21:30N 40°45' W 074°01'2 4.1
2017-Sep-16 21:00N 40°43' W 074°01'3 5.6
2017-Sep-16 20:30N 40°46' W 074°00'0 0.0
2017-Sep-16 19:59N 40°46' W 074°00'0 0.0
2017-Sep-16 19:30N 40°46' W 074°00'5 9.6
2017-Sep-16 19:00N 40°41' W 074°02'5 9.5
2017-Sep-16 18:30N 40°46' W 074°00'0 0.0
2017-Sep-16 18:00N 40°46' W 074°00'0 0.0
2017-Sep-16 17:30N 40°46' W 074°00'0 0.0
2017-Sep-16 17:00N 40°46' W 074°00'4 8.1
2017-Sep-16 16:30N 40°42' W 074°01'1 1.6
2017-Sep-16 16:00N 40°41' W 074°01'1 2.5
2017-Sep-16 15:31N 40°41' W 074°02'5 9.8
2017-Sep-16 15:00N 40°46' W 074°00'0 0.0
2017-Sep-16 14:30N 40°46' W 074°00'0 0.0
2017-Sep-16 14:00N 40°46' W 074°00'0 0.0
2017-Sep-16 00:58N 40°46' W 074°00'4 7.8
2017-Sep-16 00:31N 40°42' W 074°02'2 4.7
2017-Sep-16 00:00N 40°43' W 073°59'1 1.7
2017-Sep-15 23:30N 40°42' W 073°60'3 6.8
2017-Sep-15 23:00N 40°46' W 074°00'0 0.0
2017-Sep-15 22:30N 40°46' W 074°00'0 0.0
2017-Sep-15 22:00N 40°46' W 074°00'0 0.0
2017-Sep-15 21:30N 40°46' W 074°00'0 0.0
2017-Sep-15 20:57N 40°46' W 074°00'0 0.0
2017-Sep-15 20:30N 40°46' W 074°00'0 0.0
2017-Sep-15 20:00N 40°46' W 074°00'510.0
2017-Sep-15 19:30N 40°50' W 073°57'5 4.8
2017-Sep-15 18:34N 40°46' W 073°57'113.6
2017-Sep-15 18:30N 40°45' W 073°58'611.0
2017-Sep-15 18:00N 40°41' W 074°03'5 9.7
2017-Sep-15 17:30N 40°46' W 074°00'0 0.0
2017-Sep-15 17:00N 40°46' W 074°00'0 0.0
2017-Sep-15 16:30N 40°46' W 074°00'612.8
2017-Sep-15 16:00N 40°52' W 073°57'6 7.1
2017-Sep-15 15:09N 40°46' W 073°57'211.4
2017-Sep-15 15:00N 40°44' W 073°58'4 8.8
2017-Sep-15 14:30N 40°41' W 074°02'5 8.9
2017-Sep-15 13:58N 40°46' W 074°00'0 0.0
2017-Sep-15 13:28N 40°46' W 074°00'0 0.0
2017-Sep-15 12:58N 40°46' W 074°00'0 0.0
2017-Sep-15 12:28N 40°46' W 074°00'0 0.0
2017-Sep-15 00:58N 40°46' W 074°00'3 7.1
2017-Sep-15 00:30N 40°43' W 074°02'3 5.2
2017-Sep-15 00:00N 40°43' W 073°58'2 3.1
2017-Sep-14 23:30N 40°42' W 074°00'4 6.9
2017-Sep-14 22:59N 40°46' W 074°00'0 0.0
2017-Sep-14 22:29N 40°46' W 074°00'0 0.0
2017-Sep-14 21:59N 40°46' W 074°00'0 0.0
2017-Sep-14 21:29N 40°46' W 074°00'0 0.0
2017-Sep-14 20:59N 40°46' W 074°00'0 0.0
2017-Sep-14 20:29N 40°46' W 074°00'0 0.0
2017-Sep-14 19:58N 40°46' W 074°00'4 9.3
2017-Sep-14 19:30N 40°50' W 073°58'4 4.1
2017-Sep-14 18:30N 40°46' W 073°57'611.9
2017-Sep-14 18:00N 40°41' W 074°02'5 8.1
2017-Sep-14 17:25N 40°46' W 074°00'0 0.0
2017-Sep-14 16:58N 40°46' W 074°00'0 0.0
2017-Sep-14 16:30N 40°46' W 074°00'510.0
2017-Sep-14 16:01N 40°50' W 073°58'4 4.9
2017-Sep-14 15:07N 40°46' W 073°57'112.3
2017-Sep-14 15:01N 40°45' W 073°58'510.1
2017-Sep-14 14:30N 40°41' W 074°03'5 9.8
2017-Sep-14 14:00N 40°46' W 074°00'0 0.0
2017-Sep-14 00:45N 40°46' W 074°00'2 6.9
2017-Sep-14 00:30N 40°44' W 074°01'3 5.2
2017-Sep-14 00:00N 40°42' W 074°02'5 9.1
2017-Sep-13 23:31N 40°45' W 073°58'3 6.3
2017-Sep-13 23:00N 40°43' W 074°01'3 5.3
2017-Sep-13 22:29N 40°46' W 074°00'0 0.0
2017-Sep-13 21:59N 40°46' W 074°00'0 0.0
2017-Sep-13 21:29N 40°46' W 074°00'0 0.0
2017-Sep-13 20:59N 40°46' W 074°00'0 0.0
2017-Sep-13 20:29N 40°46' W 074°00'0 0.0
2017-Sep-13 19:59N 40°46' W 074°00'0 0.0
2017-Sep-13 19:26N 40°46' W 074°00'0 0.0
2017-Sep-13 18:53N 40°46' W 074°00'0 0.0
2017-Sep-13 18:29N 40°46' W 074°00'0 0.0
2017-Sep-13 17:59N 40°46' W 074°00'0 0.0
2017-Sep-13 17:29N 40°46' W 074°00'0 0.0
2017-Sep-13 16:59N 40°46' W 074°00'0 0.0
2017-Sep-13 16:29N 40°46' W 074°00'0 0.0
2017-Sep-13 15:59N 40°46' W 074°00'0 0.0
2017-Sep-13 15:30N 40°46' W 074°00'0 0.1
2017-Sep-13 15:00N 40°46' W 074°00'0 0.0
2017-Sep-13 14:27N 40°46' W 074°00'0 0.0
2017-Sep-13 00:57N 40°46' W 074°00'4 8.4
2017-Sep-13 00:30N 40°42' W 074°02'3 5.7
2017-Sep-13 00:00N 40°43' W 073°58'2 3.9
2017-Sep-12 23:31N 40°42' W 074°00'4 7.4
2017-Sep-12 22:59N 40°46' W 074°00'0 0.0
2017-Sep-12 22:29N 40°46' W 074°00'0 0.0
2017-Sep-12 21:59N 40°46' W 074°00'0 0.0
2017-Sep-12 21:29N 40°46' W 074°00'0 0.0
2017-Sep-12 20:56N 40°46' W 074°00'0 0.0
2017-Sep-12 20:30N 40°46' W 074°00'0 0.0
2017-Sep-12 20:00N 40°46' W 074°00'2 4.4
2017-Sep-12 19:30N 40°44' W 074°01'3 5.7
2017-Sep-12 19:01N 40°45' W 073°58'0 0.9
2017-Sep-12 18:30N 40°45' W 073°58'4 9.0
2017-Sep-12 18:01N 40°42' W 074°02'4 8.8
2017-Sep-12 17:30N 40°46' W 074°00'0 0.0
2017-Sep-12 16:59N 40°46' W 074°00'0 0.1
2017-Sep-12 16:30N 40°46' W 074°00'612.8
2017-Sep-12 16:00N 40°51' W 073°57'2 3.4
2017-Sep-12 15:23N 40°49' W 073°56'411.1
2017-Sep-12 15:00N 40°45' W 073°58'611.1
2017-Sep-12 14:30N 40°41' W 074°03'5 9.5
2017-Sep-12 14:00N 40°46' W 074°00'0 0.0
2017-Sep-12 13:27N 40°46' W 074°00'0 0.0
2017-Sep-12 01:33N 40°46' W 074°00'0 0.1
2017-Sep-12 01:30N 40°46' W 074°00'0 0.0
2017-Sep-12 01:00N 40°46' W 074°00'  

Dump ship's entire track history